This is the latest recevied weather packets stored in our database for station/object K1RFS. If no packets are shown the sender has not sent any weather packets the latest 10 day(s).
| Time | Temp. | Humidity | Pressure | Rain* | Wind** | Luminosity | Snow |
|---|---|---|---|---|---|---|---|
| 1788140797 | 22.78° C | 50% | 1002.5 hPa | 0 mm | - | 10 W/m² | - |
| 1788140488 | 23.33° C | 50% | 1002.9 hPa | 0 mm | - | 12 W/m² | - |
| 1788140184 | 23.33° C | 49% | 1002.6 hPa | 0 mm | - | 14 W/m² | - |
| 1788139883 | 23.33° C | 49% | 1002.5 hPa | 0 mm | - | 20 W/m² | - |
| 1788139578 | 23.33° C | 49% | 1002.3 hPa | 0 mm | - | 23 W/m² | - |
| 1788139273 | 23.89° C | 48% | 1002.6 hPa | 0 mm | - | 27 W/m² | - |
| 1788138967 | 23.89° C | 47% | 1002.6 hPa | 0 mm | - | 29 W/m² | - |
| 1788138663 | 23.89° C | 48% | 1002.9 hPa | 0 mm | - | 34 W/m² | - |
| 1788138358 | 23.89° C | 49% | 1002.5 hPa | 0 mm | - | 39 W/m² | - |
| 1788138054 | 23.89° C | 47% | 1002.4 hPa | 0 mm | - | 30 W/m² | - |
| 1788137749 | 23.89° C | 47% | 1002.6 hPa | 0 mm | - | 51 W/m² | - |
| 1788137448 | 24.44° C | 46% | 1002.6 hPa | 0 mm | - | 58 W/m² | - |
| 1788137144 | 24.44° C | 47% | 1002.9 hPa | 0 mm | - | 64 W/m² | - |
| 1788136840 | 24.44° C | 47% | 1002.6 hPa | 0 mm | - | 69 W/m² | - |
| 1788136536 | 24.44° C | 47% | 1002.4 hPa | 0 mm | - | 74 W/m² | - |
| 1788136232 | 25° C | 46% | 1002.8 hPa | 0 mm | - | 109 W/m² | - |
| 1788135930 | 25.56° C | 46% | 1002.9 hPa | 0 mm | - | 130 W/m² | - |
| 1788135626 | 25° C | 47% | 1002.8 hPa | 0 mm | - | 136 W/m² | - |
| 1788135321 | 25.56° C | 46% | 1003 hPa | 0 mm | - | 134 W/m² | - |
| 1788135017 | 25.56° C | 45% | 1002.9 hPa | 0 mm | - | 155 W/m² | - |
| 1788134714 | 24.44° C | 48% | 1002.6 hPa | 0 mm | - | 175 W/m² | - |
| 1788134412 | 25° C | 47% | 1002.6 hPa | 0 mm | - | 60 W/m² | - |
| 1788134106 | 25° C | 47% | 1002.8 hPa | 0 mm | - | 199 W/m² | - |
| 1788133801 | 24.44° C | 48% | 1002.4 hPa | 0 mm | - | 60 W/m² | - |
| 1788133496 | 25.56° C | 44% | 1002.4 hPa | 0 mm | - | 91 W/m² | - |
* Rain latest hour (hover to see other rain measurements)
** Current wind speed in m/s (hover to see current wind gust speed)